To NAV CANADA Home Page Login to a new session Search on AWWS site Feedback and Comments Disclaimer Vers la page française équivalente Tips FAQ What's new on the site To the Forecasts and Observations / NOTAM section To "File a Flight Plan" website Publications and other links Update of the User's profile FIC Telephone Numbers My Weather Data Folder Route Weather Data Regional Weather Data Local Weather Data To the Forecasts and Observations / NOTAM section
Request Generated 12/04/2016 at 22:24:36 UTC . Weather information available at that time is displayed.

METAR/TAF

HAMILTON/ON    

METAR CYHM 042200Z 06009KT 15SM OVC035 02/M00 A3009 RMK SC8 SLP198=
METAR CYHM 042100Z 07010KT 15SM FEW017 OVC033 02/M01 A3010 RMK SC1SC7
SLP203=
METAR CYHM 042000Z 06008KT 15SM FEW015 OVC038 02/M00 A3013 RMK SC2SC6
SLP215=

TAF AMD CYHM 042212Z 0422/0518 07010KT P6SM FEW015 OVC030 TEMPO
0501/0502 4SM -SNRA BR BKN005 OVC015
FM050200 09008KT 1SM -SN BR OVC003 TEMPO 0502/0510 3SM -SNRA BR
FM051000 24008KT 5SM BR BKN006 OVC010
FM051200 26012KT P6SM FEW012 BKN020
BECMG 0512/0514 26012G22KT
RMK NXT FCST BY 050000Z=
Your time UTC time
Weather data provided by Environment Canada and NAV CANADA